Time;durP1;ratioP1;P1;durP2;ratioP2;P2;SDS_P1;SDS_P2;PMS_P1;PMS_P2;Temp;Humidity;BMP_temperature;BMP_pressure;BME280_temperature;BME280_humidity;BME280_pressure;Samples;Min_cycle;Max_cycle;Signal;HPM_P1;HPM_P2
2022/04/30 00:02:16;;;;;;;;;;;;;;;;;;5074868;28;20109;-66
2022/04/30 00:04:42;;;;;;;;;;;;;;;;;;5071658;28;19925;-68
2022/04/30 00:07:08;;;;;;;;;;;;;;;;;;5072369;28;19928;-67
2022/04/30 00:09:35;;;;;;;;;;;;;;;;;;5067604;28;19929;-67
2022/04/30 00:12:02;;;;;;;;;;;;;;;;;;5064695;28;19924;-67
2022/04/30 00:14:29;;;;;;;;;;;;;;;;;;5064598;28;19931;-69
2022/04/30 00:16:55;;;;;;;;;;;;;;;;;;5067269;28;19928;-71
2022/04/30 00:19:21;;;;;;;;;;;;;;;;;;5066572;28;19932;-71
2022/04/30 00:21:47;;;;;;;;;;;;;;;;;;5058990;28;20011;-70
2022/04/30 00:24:13;;;;;;;;;;;;;;;;;;5070459;28;19928;-71
2022/04/30 00:26:39;;;;;;;;;;;;;;;;;;5067638;28;19924;-71
2022/04/30 00:29:07;;;;;;;;;;;;;;;;;;5067218;28;20388;-71
2022/04/30 00:31:33;;;;;;;;;;;;;;;;;;5064277;28;20301;-72
2022/04/30 00:33:59;;;;;;;;;;;;;;;;;;5065326;28;20019;-71
2022/04/30 00:36:26;;;;;;;;;;;;;;;;;;5062206;28;19924;-70
2022/04/30 00:38:52;;;;;;;;;;;;;;;;;;5062137;28;19924;-71
2022/04/30 00:41:19;;;;;;;;;;;;;;;;;;5062036;28;19928;-73
2022/04/30 00:43:45;;;;;;;;;;;;;;;;;;5063896;28;19936;-73
2022/04/30 00:46:11;;;;;;;;;;;;;;;;;;5066312;28;19994;-65
2022/04/30 00:48:37;;;;;;;;;;;;;;;;;;5062875;28;19924;-66
2022/04/30 00:51:04;;;;;;;;;;;;;;;;;;5062099;28;19924;-70
2022/04/30 00:53:30;;;;;;;;;;;;;;;;;;5060693;28;20351;-70
2022/04/30 00:55:56;;;;;;;;;;;;;;;;;;5066552;28;20277;-70
2022/04/30 00:58:22;;;;;;;;;;;;;;;;;;5065157;28;19925;-72
2022/04/30 01:00:48;;;;;;;;;;;;;;;;;;5059887;28;19960;-68
2022/04/30 01:03:14;;;;;;;;;;;;;;;;;;5064876;28;19935;-71
2022/04/30 01:05:40;;;;;;;;;;;;;;;;;;5064999;28;19924;-70
2022/04/30 01:08:07;;;;;;;;;;;;;;;;;;5064822;28;19943;-71
2022/04/30 01:10:33;;;;;;;;;;;;;;;;;;5065354;28;19935;-72
2022/04/30 01:12:59;;;;;;;;;;;;;;;;;;5064497;28;19925;-68
2022/04/30 01:15:25;;;;;;;;;;;;;;;;;;5060645;28;19929;-66
2022/04/30 01:17:51;;;;;;;;;;;;;;;;;;5064944;28;20059;-73
2022/04/30 01:20:17;;;;;;;;;;;;;;;;;;5066366;28;19931;-72
2022/04/30 01:22:44;;;;;;;;;;;;;;;;;;5063217;28;19931;-73
2022/04/30 01:25:11;;;;;;;;;;;;;;;;;;5079550;28;19940;-76
2022/04/30 01:27:37;;;;;;;;;;;;;;;;;;5082096;28;19932;-74
2022/04/30 01:30:03;;;;;;;;;;;;;;;;;;5081288;28;19951;-72
2022/04/30 01:37:57;;;;;;;;;;;;;;;;;;5067246;28;19923;-73
2022/04/30 01:40:23;;;;;;;;;;;;;;;;;;5063181;28;19947;-68
2022/04/30 01:42:50;;;;;;;;;;;;;;;;;;5066846;28;19928;-69
2022/04/30 01:45:16;;;;;;;;;;;;;;;;;;5066802;28;19931;-69
2022/04/30 01:47:43;;;;;;;;;;;;;;;;;;5061845;28;19924;-69
2022/04/30 01:50:09;;;;;;;;;;;;;;;;;;5060665;28;19929;-70
2022/04/30 01:52:35;;;;;;;;;;;;;;;;;;5064065;28;19936;-69
2022/04/30 01:55:01;;;;;;;;;;;;;;;;;;5066766;28;19947;-69
2022/04/30 01:57:28;;;;;;;;;;;;;;;;;;5061067;28;19924;-69
2022/04/30 01:59:54;;;;;;;;;;;;;;;;;;5064258;28;19925;-72
2022/04/30 02:02:22;;;;;;;;;;;;;;;;;;5062062;28;19931;-71
2022/04/30 02:04:48;;;;;;;;;;;;;;;;;;5062949;28;19972;-69
2022/04/30 02:07:14;;;;;;;;;;;;;;;;;;5065118;28;19928;-69
2022/04/30 02:09:41;;;;;;;;;;;;;;;;;;5065659;28;19932;-69
2022/04/30 02:12:07;;;;;;;;;;;;;;;;;;5061514;28;19956;-68
2022/04/30 02:14:33;;;;;;;;;;;;;;;;;;5066988;28;20019;-71
2022/04/30 02:16:59;;;;;;;;;;;;;;;;;;5062595;28;19928;-69
2022/04/30 02:19:25;;;;;;;;;;;;;;;;;;5064111;28;19978;-69
2022/04/30 02:21:52;;;;;;;;;;;;;;;;;;5064330;28;19940;-69
2022/04/30 02:24:18;;;;;;;;;;;;;;;;;;5062053;28;20302;-69
2022/04/30 02:26:44;;;;;;;;;;;;;;;;;;5061658;28;20037;-71
2022/04/30 02:29:11;;;;;;;;;;;;;;;;;;5066131;28;20396;-69
2022/04/30 02:31:37;;;;;;;;;;;;;;;;;;5075162;28;19925;-70
2022/04/30 02:34:03;;;;;;;;;;;;;;;;;;5075873;28;20385;-69
2022/04/30 02:36:30;;;;;;;;;;;;;;;;;;5074292;28;19933;-68
2022/04/30 02:38:56;;;;;;;;;;;;;;;;;;5069184;28;20015;-68
2022/04/30 02:41:22;;;;;;;;;;;;;;;;;;5060699;28;19926;-66
2022/04/30 02:43:49;;;;;;;;;;;;;;;;;;5061270;28;19931;-69
2022/04/30 02:46:15;;;;;;;;;;;;;;;;;;5067718;28;20336;-65
2022/04/30 02:48:41;;;;;;;;;;;;;;;;;;5067117;28;19925;-65
2022/04/30 02:51:09;;;;;;;;;;;;;;;;;;5065430;28;19931;-73
2022/04/30 02:53:35;;;;;;;;;;;;;;;;;;5067771;28;19939;-73
2022/04/30 02:56:01;;;;;;;;;;;;;;;;;;5067011;28;19932;-73
2022/04/30 03:01:11;;;;;;;;;;;;;;;;;;5069661;28;19919;-73
2022/04/30 03:03:37;;;;;;;;;;;;;;;;;;5072560;28;20460;-74
2022/04/30 03:06:03;;;;;;;;;;;;;;;;;;5086428;28;19984;-69
2022/04/30 03:08:29;;;;;;;;;;;;;;;;;;5084139;28;19928;-71
2022/04/30 03:10:56;;;;;;;;;;;;;;;;;;5083736;28;19938;-70
2022/04/30 03:13:23;;;;;;;;;;;;;;;;;;5080224;28;19929;-70
2022/04/30 03:15:50;;;;;;;;;;;;;;;;;;5082245;28;19935;-70
2022/04/30 03:23:44;;;;;;;;;;;;;;;;;;5067099;28;20420;-73
2022/04/30 03:26:11;;;;;;;;;;;;;;;;;;5069456;28;20017;-72
2022/04/30 03:28:37;;;;;;;;;;;;;;;;;;5067753;28;19925;-72
2022/04/30 03:31:03;;;;;;;;;;;;;;;;;;5065718;28;20747;-74
2022/04/30 03:35:57;;;;;;;;;;;;;;;;;;5079087;28;20043;-61
2022/04/30 03:38:24;;;;;;;;;;;;;;;;;;5071192;28;19925;-61
2022/04/30 03:40:50;;;;;;;;;;;;;;;;;;5064125;28;20484;-59
2022/04/30 03:43:16;;;;;;;;;;;;;;;;;;5068986;28;19943;-60
2022/04/30 03:45:42;;;;;;;;;;;;;;;;;;5073128;28;19928;-62
2022/04/30 03:48:09;;;;;;;;;;;;;;;;;;5076821;28;19925;-64
2022/04/30 03:50:35;;;;;;;;;;;;;;;;;;5077719;28;20311;-60
2022/04/30 03:53:01;;;;;;;;;;;;;;;;;;5080586;28;19924;-62
2022/04/30 03:55:27;;;;;;;;;;;;;;;;;;5080210;28;19925;-61
2022/04/30 03:57:53;;;;;;;;;;;;;;;;;;5073652;28;20295;-62
2022/04/30 04:00:20;;;;;;;;;;;;;;;;;;5078820;28;20380;-63
2022/04/30 04:02:46;;;;;;;;;;;;;;;;;;5072380;28;19981;-61
2022/04/30 04:05:12;;;;;;;;;;;;;;;;;;5071278;28;19932;-63
2022/04/30 04:07:38;;;;;;;;;;;;;;;;;;5078649;28;19979;-62
2022/04/30 04:10:05;;;;;;;;;;;;;;;;;;5078611;28;19986;-61
2022/04/30 04:12:31;;;;;;;;;;;;;;;;;;5082861;28;19924;-61
2022/04/30 04:17:41;;;;;;;;;;;;;;;;;;5084056;28;19966;-63
2022/04/30 04:20:07;;;;;;;;;;;;;;;;;;5073192;28;19933;-62
2022/04/30 04:22:33;;;;;;;;;;;;;;;;;;5064824;28;19955;-61
2022/04/30 04:27:45;;;;;;;;;;;;;;;;;;5048027;28;19944;-61
2022/04/30 04:30:11;;;;;;;;;;;;;;;;;;5076197;28;19928;-61
2022/04/30 04:32:37;;;;;;;;;;;;;;;;;;5069259;28;20201;-62
2022/04/30 04:35:03;;;;;;;;;;;;;;;;;;5077647;28;19931;-61
2022/04/30 04:37:29;;;;;;;;;;;;;;;;;;5063547;28;19944;-60
2022/04/30 04:39:56;;;;;;;;;;;;;;;;;;5076161;28;19939;-61
2022/04/30 04:42:22;;;;;;;;;;;;;;;;;;5076820;28;19933;-63
2022/04/30 04:44:48;;;;;;;;;;;;;;;;;;5066628;28;19935;-62
2022/04/30 04:47:14;;;;;;;;;;;;;;;;;;5075230;28;19924;-64
2022/04/30 04:49:40;;;;;;;;;;;;;;;;;;5075131;28;19928;-62
2022/04/30 04:52:06;;;;;;;;;;;;;;;;;;5063807;28;20014;-64
2022/04/30 04:54:32;;;;;;;;;;;;;;;;;;5071218;28;19939;-59
2022/04/30 04:56:59;;;;;;;;;;;;;;;;;;5070983;28;19928;-59
2022/04/30 04:59:25;;;;;;;;;;;;;;;;;;5075518;28;19978;-59
2022/04/30 05:01:51;;;;;;;;;;;;;;;;;;5070262;28;19931;-59
2022/04/30 05:04:17;;;;;;;;;;;;;;;;;;5065808;28;19936;-60
2022/04/30 05:06:44;;;;;;;;;;;;;;;;;;5064831;28;20036;-61
2022/04/30 05:09:10;;;;;;;;;;;;;;;;;;5063485;28;20007;-66
2022/04/30 05:11:36;;;;;;;;;;;;;;;;;;5061957;28;19928;-67
2022/04/30 05:14:03;;;;;;;;;;;;;;;;;;5062357;28;19977;-67
2022/04/30 05:16:29;;;;;;;;;;;;;;;;;;5059176;28;19924;-67
2022/04/30 05:18:55;;;;;;;;;;;;;;;;;;5065171;28;19948;-65
2022/04/30 05:21:22;;;;;;;;;;;;;;;;;;5064431;28;19936;-63
2022/04/30 05:23:48;;;;;;;;;;;;;;;;;;5067157;28;19925;-64
2022/04/30 05:26:14;;;;;;;;;;;;;;;;;;5068005;28;20360;-64
2022/04/30 05:28:40;;;;;;;;;;;;;;;;;;5072917;28;20280;-63
2022/04/30 05:31:06;;;;;;;;;;;;;;;;;;5068367;28;19924;-63
2022/04/30 05:33:32;;;;;;;;;;;;;;;;;;5070618;28;20020;-63
2022/04/30 05:35:58;;;;;;;;;;;;;;;;;;5069407;28;19924;-64
2022/04/30 05:38:28;;;;;;;;;;;;;;;;;;5071328;28;19932;-63
2022/04/30 05:40:54;;;;;;;;;;;;;;;;;;5071300;28;19932;-64
2022/04/30 05:43:20;;;;;;;;;;;;;;;;;;5066232;28;19931;-63
2022/04/30 05:45:46;;;;;;;;;;;;;;;;;;5075737;28;19966;-64
2022/04/30 05:48:13;;;;;;;;;;;;;;;;;;5078031;28;20043;-64
2022/04/30 05:50:39;;;;;;;;;;;;;;;;;;5063920;28;19939;-64
2022/04/30 05:53:05;;;;;;;;;;;;;;;;;;5059798;28;19925;-64
2022/04/30 05:55:32;;;;;;;;;;;;;;;;;;5069146;28;20288;-63
2022/04/30 05:57:58;;;;;;;;;;;;;;;;;;5070332;28;19924;-63
2022/04/30 06:00:24;;;;;;;;;;;;;;;;;;5069481;28;19931;-64
2022/04/30 06:02:51;;;;;;;;;;;;;;;;;;5071864;28;19928;-64
2022/04/30 06:05:17;;;;;;;;;;;;;;;;;;5067311;28;19925;-63
2022/04/30 06:07:43;;;;;;;;;;;;;;;;;;5063253;28;19928;-64
2022/04/30 06:10:09;;;;;;;;;;;;;;;;;;5069606;28;19928;-62
2022/04/30 06:12:35;;;;;;;;;;;;;;;;;;5070864;28;19924;-64
2022/04/30 06:15:01;;;;;;;;;;;;;;;;;;5071238;28;19925;-63
2022/04/30 06:17:28;;;;;;;;;;;;;;;;;;5073111;28;19932;-63
2022/04/30 06:19:54;;;;;;;;;;;;;;;;;;5071179;28;19931;-63
2022/04/30 06:22:20;;;;;;;;;;;;;;;;;;5078308;28;19925;-62
2022/04/30 06:24:46;;;;;;;;;;;;;;;;;;5071298;28;20419;-62
2022/04/30 06:27:12;;;;;;;;;;;;;;;;;;5061220;28;20319;-63
2022/04/30 06:29:39;;;;;;;;;;;;;;;;;;5072135;28;20351;-63
2022/04/30 06:32:05;;;;;;;;;;;;;;;;;;5072827;28;19928;-62
2022/04/30 06:34:31;;;;;;;;;;;;;;;;;;5071178;28;19925;-64
2022/04/30 06:36:57;;;;;;;;;;;;;;;;;;5065568;28;20051;-62
2022/04/30 06:39:23;;;;;;;;;;;;;;;;;;5069086;28;19933;-62
2022/04/30 06:41:51;;;;;;;;;;;;;;;;;;5077360;28;19924;-62
2022/04/30 06:44:17;;;;;;;;;;;;;;;;;;5070482;28;19933;-63
2022/04/30 06:46:43;;;;;;;;;;;;;;;;;;5068351;28;19932;-62
2022/04/30 06:49:09;;;;;;;;;;;;;;;;;;5064288;28;19928;-69
2022/04/30 06:51:35;;;;;;;;;;;;;;;;;;5076883;28;19929;-65
2022/04/30 06:59:31;;;;;;;;;;;;;;;;;;5068603;28;19920;-62
2022/04/30 07:02:01;;;;;;;;;;;;;;;;;;5066498;28;20316;-61
2022/04/30 07:04:28;;;;;;;;;;;;;;;;;;5065295;28;21228;-62
2022/04/30 07:06:54;;;;;;;;;;;;;;;;;;5061372;28;20339;-62
2022/04/30 07:09:20;;;;;;;;;;;;;;;;;;5072496;28;19924;-63
2022/04/30 07:11:46;;;;;;;;;;;;;;;;;;5067838;28;19932;-63
2022/04/30 07:14:12;;;;;;;;;;;;;;;;;;5066969;28;19933;-63
2022/04/30 07:16:39;;;;;;;;;;;;;;;;;;5074507;28;20296;-64
2022/04/30 07:19:05;;;;;;;;;;;;;;;;;;5070710;28;19930;-63
2022/04/30 07:21:32;;;;;;;;;;;;;;;;;;5060806;28;19924;-62
2022/04/30 07:23:58;;;;;;;;;;;;;;;;;;5076313;28;20225;-62
2022/04/30 07:26:24;;;;;;;;;;;;;;;;;;5065639;28;19933;-61
2022/04/30 07:28:51;;;;;;;;;;;;;;;;;;5072556;28;19924;-62
2022/04/30 07:31:17;;;;;;;;;;;;;;;;;;5064852;28;20424;-61
2022/04/30 07:33:44;;;;;;;;;;;;;;;;;;5071625;28;20411;-61
2022/04/30 07:36:10;;;;;;;;;;;;;;;;;;5063341;28;19932;-60
2022/04/30 07:38:36;;;;;;;;;;;;;;;;;;5068905;28;19928;-62
2022/04/30 07:41:02;;;;;;;;;;;;;;;;;;5071413;28;19932;-67
2022/04/30 07:43:28;;;;;;;;;;;;;;;;;;5069159;28;19932;-67
2022/04/30 07:45:54;;;;;;;;;;;;;;;;;;5070045;28;20388;-66
2022/04/30 07:48:21;;;;;;;;;;;;;;;;;;5077468;28;19933;-66
2022/04/30 07:50:47;;;;;;;;;;;;;;;;;;5074259;28;19932;-65
2022/04/30 07:53:13;;;;;;;;;;;;;;;;;;5076872;28;19928;-66
2022/04/30 07:55:39;;;;;;;;;;;;;;;;;;5069591;28;19924;-66
2022/04/30 07:58:05;;;;;;;;;;;;;;;;;;5075987;28;19955;-66
2022/04/30 08:00:31;;;;;;;;;;;;;;;;;;5066215;28;19925;-66
2022/04/30 08:02:57;;;;;;;;;;;;;;;;;;5069861;28;20296;-66
2022/04/30 08:05:24;;;;;;;;;;;;;;;;;;5071338;28;19932;-66
2022/04/30 08:07:50;;;;;;;;;;;;;;;;;;5062740;28;19924;-66
2022/04/30 08:10:16;;;;;;;;;;;;;;;;;;5066274;28;19932;-66
2022/04/30 08:12:42;;;;;;;;;;;;;;;;;;5067015;28;20116;-67
2022/04/30 08:15:08;;;;;;;;;;;;;;;;;;5066308;28;19924;-66
2022/04/30 08:17:35;;;;;;;;;;;;;;;;;;5064334;28;20372;-65
2022/04/30 08:20:01;;;;;;;;;;;;;;;;;;5069588;28;20438;-67
2022/04/30 08:22:28;;;;;;;;;;;;;;;;;;5072962;28;20007;-65
2022/04/30 08:24:54;;;;;;;;;;;;;;;;;;5070102;28;19952;-65
2022/04/30 08:27:20;;;;;;;;;;;;;;;;;;5075486;28;19924;-65
2022/04/30 08:29:46;;;;;;;;;;;;;;;;;;5070250;28;20308;-66
2022/04/30 08:32:14;;;;;;;;;;;;;;;;;;5072380;28;20493;-65
2022/04/30 08:34:40;;;;;;;;;;;;;;;;;;5073926;28;20392;-66
2022/04/30 08:37:07;;;;;;;;;;;;;;;;;;5074340;28;19947;-66
2022/04/30 08:39:33;;;;;;;;;;;;;;;;;;5071615;28;19925;-65
2022/04/30 08:41:59;;;;;;;;;;;;;;;;;;5065887;28;19940;-66
2022/04/30 08:44:25;;;;;;;;;;;;;;;;;;5063328;28;19978;-66
2022/04/30 08:46:51;;;;;;;;;;;;;;;;;;5063696;28;19925;-66
2022/04/30 08:49:17;;;;;;;;;;;;;;;;;;5063806;28;20407;-66
2022/04/30 08:51:43;;;;;;;;;;;;;;;;;;5068753;28;20606;-66
2022/04/30 08:54:10;;;;;;;;;;;;;;;;;;5070416;28;19935;-66
2022/04/30 08:56:36;;;;;;;;;;;;;;;;;;5067176;28;19925;-66
2022/04/30 08:59:04;;;;;;;;;;;;;;;;;;5069946;28;19925;-66
2022/04/30 09:01:31;;;;;;;;;;;;;;;;;;5064289;28;19924;-66
2022/04/30 09:03:57;;;;;;;;;;;;;;;;;;5068095;28;20475;-65
2022/04/30 09:06:23;;;;;;;;;;;;;;;;;;5067096;28;19929;-67
2022/04/30 09:08:49;;;;;;;;;;;;;;;;;;5064150;28;19932;-66
2022/04/30 09:11:15;;;;;;;;;;;;;;;;;;5070045;28;19925;-67
2022/04/30 09:13:42;;;;;;;;;;;;;;;;;;5069502;28;19924;-66
2022/04/30 09:16:08;;;;;;;;;;;;;;;;;;5066467;28;19925;-67
2022/04/30 09:18:34;;;;;;;;;;;;;;;;;;5068664;28;19928;-65
2022/04/30 09:21:00;;;;;;;;;;;;;;;;;;5070195;28;20442;-66
2022/04/30 09:23:27;;;;;;;;;;;;;;;;;;5069143;28;19968;-65
2022/04/30 09:25:53;;;;;;;;;;;;;;;;;;5070048;28;19928;-65
2022/04/30 09:28:19;;;;;;;;;;;;;;;;;;5069211;28;19967;-68
2022/04/30 09:30:46;;;;;;;;;;;;;;;;;;5069953;28;19924;-66
2022/04/30 09:33:12;;;;;;;;;;;;;;;;;;5066737;28;19924;-68
2022/04/30 09:38:22;;;;;;;;;;;;;;;;;;5085717;28;19923;-64
2022/04/30 09:40:48;;;;;;;;;;;;;;;;;;5077068;28;20288;-64
2022/04/30 09:43:15;;;;;;;;;;;;;;;;;;5072080;28;19935;-63
2022/04/30 09:45:41;;;;;;;;;;;;;;;;;;5079055;28;20019;-63
2022/04/30 09:53:56;;;;;;;;;;;;;;;;;;5078771;28;20101;-64
2022/04/30 09:56:21;;;;;;;;;;;;;;;;;;5082672;28;20211;-64
2022/04/30 09:58:47;;;;;;;;;;;;;;;;;;5078149;28;19934;-65
2022/04/30 10:01:14;;;;;;;;;;;;;;;;;;5073337;28;19934;-64
2022/04/30 10:03:40;;;;;;;;;;;;;;;;;;5079964;28;19993;-64
2022/04/30 10:06:06;;;;;;;;;;;;;;;;;;5076339;28;19972;-64
2022/04/30 10:08:32;;;;;;;;;;;;;;;;;;5077915;28;19939;-65
2022/04/30 10:10:58;;;;;;;;;;;;;;;;;;5078763;28;20097;-64
2022/04/30 10:13:24;;;;;;;;;;;;;;;;;;5076310;28;20349;-65
2022/04/30 10:15:51;;;;;;;;;;;;;;;;;;5082948;28;19940;-64
2022/04/30 10:18:18;;;;;;;;;;;;;;;;;;5081683;28;19935;-64
2022/04/30 10:20:44;;;;;;;;;;;;;;;;;;5077108;28;19925;-63
2022/04/30 10:23:10;;;;;;;;;;;;;;;;;;5078071;28;19924;-65
2022/04/30 10:25:37;;;;;;;;;;;;;;;;;;5078163;28;19939;-65
2022/04/30 10:28:03;;;;;;;;;;;;;;;;;;5075710;28;19935;-66
2022/04/30 10:30:29;;;;;;;;;;;;;;;;;;5080712;28;19924;-65
2022/04/30 10:32:55;;;;;;;;;;;;;;;;;;5079583;28;20388;-65
2022/04/30 10:35:21;;;;;;;;;;;;;;;;;;5081057;28;20320;-65
2022/04/30 10:37:47;;;;;;;;;;;;;;;;;;5078180;28;19940;-73
2022/04/30 10:40:13;;;;;;;;;;;;;;;;;;5072341;28;19930;-65
2022/04/30 10:42:40;;;;;;;;;;;;;;;;;;5072557;28;19924;-65
2022/04/30 10:45:07;;;;;;;;;;;;;;;;;;5073098;28;20375;-65
2022/04/30 10:47:33;;;;;;;;;;;;;;;;;;5072260;28;20257;-65
2022/04/30 10:50:00;;;;;;;;;;;;;;;;;;5076792;28;20023;-65
2022/04/30 10:52:26;;;;;;;;;;;;;;;;;;5077086;28;19924;-65
2022/04/30 10:54:54;;;;;;;;;;;;;;;;;;5077685;28;19936;-65
2022/04/30 10:57:27;;;;;;;;;;;;;;;;;;4639907;28;10000836;-66
2022/04/30 10:59:54;;;;;;;;;;;;;;;;;;5074054;28;19959;-64
2022/04/30 11:02:20;;;;;;;;;;;;;;;;;;5074593;28;19924;-64
2022/04/30 11:04:46;;;;;;;;;;;;;;;;;;5071637;28;19972;-64
2022/04/30 11:07:13;;;;;;;;;;;;;;;;;;5077936;28;19970;-64
2022/04/30 11:09:39;;;;;;;;;;;;;;;;;;5077842;28;19944;-64
2022/04/30 11:12:06;;;;;;;;;;;;;;;;;;5078060;28;19929;-64
2022/04/30 11:14:32;;;;;;;;;;;;;;;;;;5077144;28;19932;-64
2022/04/30 11:16:58;;;;;;;;;;;;;;;;;;5085124;28;19932;-64
2022/04/30 11:19:24;;;;;;;;;;;;;;;;;;5076244;28;19927;-65
2022/04/30 11:21:51;;;;;;;;;;;;;;;;;;5077343;28;20602;-64
2022/04/30 11:24:17;;;;;;;;;;;;;;;;;;5079608;28;19929;-64
2022/04/30 11:26:43;;;;;;;;;;;;;;;;;;5080322;28;19925;-64
2022/04/30 11:29:09;;;;;;;;;;;;;;;;;;5076100;28;20015;-65
2022/04/30 11:31:35;;;;;;;;;;;;;;;;;;5076892;28;20020;-65
2022/04/30 11:34:01;;;;;;;;;;;;;;;;;;5081578;28;20280;-64
2022/04/30 11:36:28;;;;;;;;;;;;;;;;;;5085189;28;20346;-64
2022/04/30 11:38:55;;;;;;;;;;;;;;;;;;5081208;28;19947;-64
2022/04/30 11:41:21;;;;;;;;;;;;;;;;;;5078061;28;19981;-63
2022/04/30 11:43:47;;;;;;;;;;;;;;;;;;5069405;28;19932;-64
2022/04/30 11:46:14;;;;;;;;;;;;;;;;;;5083081;28;19931;-65
2022/04/30 11:48:40;;;;;;;;;;;;;;;;;;5081745;28;20188;-64
2022/04/30 11:51:06;;;;;;;;;;;;;;;;;;5077161;28;19924;-65
2022/04/30 11:53:32;;;;;;;;;;;;;;;;;;5081886;28;19955;-64
2022/04/30 11:55:58;;;;;;;;;;;;;;;;;;5079011;28;20426;-65
2022/04/30 11:58:25;;;;;;;;;;;;;;;;;;5080770;28;19931;-64
2022/04/30 12:00:51;;;;;;;;;;;;;;;;;;5076080;28;19925;-64
2022/04/30 12:03:17;;;;;;;;;;;;;;;;;;5078003;28;19936;-64
2022/04/30 12:05:43;;;;;;;;;;;;;;;;;;5077887;28;19924;-64
2022/04/30 12:08:09;;;;;;;;;;;;;;;;;;5081079;28;20012;-64
2022/04/30 12:10:36;;;;;;;;;;;;;;;;;;5072846;28;19935;-63
2022/04/30 12:13:02;;;;;;;;;;;;;;;;;;5078299;28;19935;-65
2022/04/30 12:15:29;;;;;;;;;;;;;;;;;;5078653;28;20324;-65
2022/04/30 12:26:06;;;;;;;;;;;;;;;;;;5080576;28;20015;-66
2022/04/30 12:28:32;;;;;;;;;;;;;;;;;;5076000;28;19928;-66
2022/04/30 12:30:58;;;;;;;;;;;;;;;;;;5081976;28;19938;-66
2022/04/30 12:33:24;;;;;;;;;;;;;;;;;;5075975;28;19935;-65
2022/04/30 12:35:50;;;;;;;;;;;;;;;;;;5081265;28;19932;-65
2022/04/30 12:38:17;;;;;;;;;;;;;;;;;;5085010;28;19935;-65
2022/04/30 12:40:43;;;;;;;;;;;;;;;;;;5073752;28;20442;-65
2022/04/30 12:43:09;;;;;;;;;;;;;;;;;;5073937;28;19928;-66
2022/04/30 12:45:37;;;;;;;;;;;;;;;;;;5079086;28;19928;-66
2022/04/30 12:48:04;;;;;;;;;;;;;;;;;;5078761;28;19932;-65
2022/04/30 12:50:32;;;;;;;;;;;;;;;;;;5077433;28;19959;-66
2022/04/30 12:52:58;;;;;;;;;;;;;;;;;;5079919;28;20285;-65
2022/04/30 12:55:24;;;;;;;;;;;;;;;;;;5077833;28;20024;-66
2022/04/30 12:57:51;;;;;;;;;;;;;;;;;;5078854;28;19928;-66
2022/04/30 13:00:17;;;;;;;;;;;;;;;;;;5075521;28;19928;-66
2022/04/30 13:02:43;;;;;;;;;;;;;;;;;;5079967;28;20379;-66
2022/04/30 13:05:09;;;;;;;;;;;;;;;;;;5075870;28;20412;-65
2022/04/30 13:07:35;;;;;;;;;;;;;;;;;;5079580;28;20340;-67
2022/04/30 13:15:30;;;;;;;;;;;;;;;;;;5077865;28;20022;-65
2022/04/30 13:17:56;;;;;;;;;;;;;;;;;;5082444;28;19928;-67
2022/04/30 13:20:22;;;;;;;;;;;;;;;;;;5076393;28;19936;-66
2022/04/30 13:22:49;;;;;;;;;;;;;;;;;;5080559;28;19936;-66
2022/04/30 13:25:16;;;;;;;;;;;;;;;;;;5078154;28;19932;-66
2022/04/30 13:27:43;;;;;;;;;;;;;;;;;;5071739;28;20251;-66
2022/04/30 13:30:09;;;;;;;;;;;;;;;;;;5079968;28;20009;-64
2022/04/30 13:32:35;;;;;;;;;;;;;;;;;;5077086;28;20424;-65
2022/04/30 13:35:01;;;;;;;;;;;;;;;;;;5082104;28;20554;-65
2022/04/30 13:37:27;;;;;;;;;;;;;;;;;;5083972;28;19963;-65
2022/04/30 13:39:53;;;;;;;;;;;;;;;;;;5070793;28;19928;-64
2022/04/30 13:42:20;;;;;;;;;;;;;;;;;;5079176;28;19929;-64
2022/04/30 13:44:46;;;;;;;;;;;;;;;;;;5080933;28;19927;-64
2022/04/30 13:47:12;;;;;;;;;;;;;;;;;;5080690;28;19928;-65
2022/04/30 13:49:38;;;;;;;;;;;;;;;;;;5074385;28;20184;-65
2022/04/30 13:52:05;;;;;;;;;;;;;;;;;;5077330;28;19928;-65
2022/04/30 13:54:31;;;;;;;;;;;;;;;;;;5074606;28;20408;-64
2022/04/30 13:56:57;;;;;;;;;;;;;;;;;;5073070;28;20015;-64
2022/04/30 13:59:24;;;;;;;;;;;;;;;;;;5078839;28;19924;-65
2022/04/30 14:01:51;;;;;;;;;;;;;;;;;;5074728;28;19997;-65
2022/04/30 14:04:17;;;;;;;;;;;;;;;;;;5077365;28;19928;-65
2022/04/30 14:06:43;;;;;;;;;;;;;;;;;;5075031;28;19983;-65
2022/04/30 14:09:09;;;;;;;;;;;;;;;;;;5083151;28;20123;-65
2022/04/30 14:11:35;;;;;;;;;;;;;;;;;;5085166;28;19928;-65
2022/04/30 14:16:46;;;;;;;;;;;;;;;;;;5085861;28;20018;-64
2022/04/30 14:19:12;;;;;;;;;;;;;;;;;;5077598;28;20226;-65
2022/04/30 14:21:38;;;;;;;;;;;;;;;;;;5072878;28;19928;-65
2022/04/30 14:24:04;;;;;;;;;;;;;;;;;;5079512;28;20090;-64
2022/04/30 14:26:31;;;;;;;;;;;;;;;;;;5076658;28;19928;-65
2022/04/30 14:28:57;;;;;;;;;;;;;;;;;;5070663;28;19928;-64
2022/04/30 14:31:23;;;;;;;;;;;;;;;;;;5075208;28;20368;-64
2022/04/30 14:33:50;;;;;;;;;;;;;;;;;;5071850;28;19928;-64
2022/04/30 14:36:16;;;;;;;;;;;;;;;;;;5081595;28;19928;-64
2022/04/30 14:38:42;;;;;;;;;;;;;;;;;;5074058;28;20378;-64
2022/04/30 14:41:09;;;;;;;;;;;;;;;;;;5084366;28;19932;-64
2022/04/30 14:43:36;;;;;;;;;;;;;;;;;;5075210;28;19928;-64
2022/04/30 14:46:03;;;;;;;;;;;;;;;;;;5075434;28;19928;-64
2022/04/30 14:48:29;;;;;;;;;;;;;;;;;;5071769;28;20177;-64
2022/04/30 14:50:55;;;;;;;;;;;;;;;;;;5075559;28;20108;-64
2022/04/30 14:53:21;;;;;;;;;;;;;;;;;;5086458;28;19935;-64
2022/04/30 14:55:51;;;;;;;;;;;;;;;;;;5077235;28;19928;-64
2022/04/30 14:58:17;;;;;;;;;;;;;;;;;;5074957;28;19929;-64
2022/04/30 15:00:45;;;;;;;;;;;;;;;;;;5073837;28;19939;-64
2022/04/30 15:03:13;;;;;;;;;;;;;;;;;;5073946;28;19928;-64
2022/04/30 15:05:39;;;;;;;;;;;;;;;;;;5075983;28;20023;-64
2022/04/30 15:08:06;;;;;;;;;;;;;;;;;;5083025;28;20399;-64
2022/04/30 15:10:32;;;;;;;;;;;;;;;;;;5078374;28;19951;-64
2022/04/30 15:12:58;;;;;;;;;;;;;;;;;;5079837;28;19924;-65
2022/04/30 15:15:24;;;;;;;;;;;;;;;;;;5073618;28;19935;-66
2022/04/30 15:17:50;;;;;;;;;;;;;;;;;;5077933;28;20411;-66
2022/04/30 15:20:16;;;;;;;;;;;;;;;;;;5084366;28;19932;-66
2022/04/30 15:22:43;;;;;;;;;;;;;;;;;;5078072;28;20190;-65
2022/04/30 15:25:10;;;;;;;;;;;;;;;;;;5070603;28;19975;-66
2022/04/30 15:27:36;;;;;;;;;;;;;;;;;;5076365;28;20019;-66
2022/04/30 15:30:03;;;;;;;;;;;;;;;;;;5081959;28;19924;-69
2022/04/30 15:32:29;;;;;;;;;;;;;;;;;;5073325;28;20401;-66
2022/04/30 15:34:55;;;;;;;;;;;;;;;;;;5073424;28;20300;-65
2022/04/30 15:37:21;;;;;;;;;;;;;;;;;;5082245;28;19932;-66
2022/04/30 15:39:47;;;;;;;;;;;;;;;;;;5066647;22;19929;-75
2022/04/30 15:42:13;;;;;;;;;;;;;;;;;;5043224;28;19928;-75
2022/04/30 15:44:40;;;;;;;;;;;;;;;;;;5035862;28;20318;-73
2022/04/30 15:52:34;;;;;;;;;;;;;;;;;;5042094;28;19924;-75
2022/04/30 15:55:00;;;;;;;;;;;;;;;;;;5040219;28;19952;-73
2022/04/30 15:57:26;;;;;;;;;;;;;;;;;;5041272;28;19933;-76
2022/04/30 15:59:53;;;;;;;;;;;;;;;;;;5051060;28;20221;-75
2022/04/30 16:02:21;;;;;;;;;;;;;;;;;;5053372;28;19940;-75
2022/04/30 16:04:48;;;;;;;;;;;;;;;;;;5052356;28;20331;-74
2022/04/30 16:07:14;;;;;;;;;;;;;;;;;;5051421;28;19980;-75
2022/04/30 16:09:40;;;;;;;;;;;;;;;;;;5037400;28;19939;-74
2022/04/30 16:12:06;;;;;;;;;;;;;;;;;;5044055;28;19933;-73
2022/04/30 16:14:34;;;;;;;;;;;;;;;;;;5041360;28;20392;-73
2022/04/30 16:17:00;;;;;;;;;;;;;;;;;;5042307;28;19929;-74
2022/04/30 16:19:26;;;;;;;;;;;;;;;;;;5033739;28;19937;-74
2022/04/30 16:21:53;;;;;;;;;;;;;;;;;;5043290;28;19963;-74
2022/04/30 16:24:20;;;;;;;;;;;;;;;;;;5044969;28;19929;-75
2022/04/30 16:26:48;;;;;;;;;;;;;;;;;;5038988;28;20398;-75
2022/04/30 16:29:15;;;;;;;;;;;;;;;;;;5036553;28;19929;-74
2022/04/30 16:31:42;;;;;;;;;;;;;;;;;;5035113;28;19929;-74
2022/04/30 16:34:08;;;;;;;;;;;;;;;;;;5034138;28;19941;-74
2022/04/30 16:36:34;;;;;;;;;;;;;;;;;;5039104;28;19924;-74
2022/04/30 16:39:03;;;;;;;;;;;;;;;;;;5039854;28;19925;-75
2022/04/30 16:41:29;;;;;;;;;;;;;;;;;;5041699;28;20288;-74
2022/04/30 16:43:55;;;;;;;;;;;;;;;;;;5037610;28;19985;-72
2022/04/30 16:46:22;;;;;;;;;;;;;;;;;;5044641;28;19933;-74
2022/04/30 16:48:48;;;;;;;;;;;;;;;;;;5042581;28;20315;-75
2022/04/30 16:53:58;;;;;;;;;;;;;;;;;;5036745;28;20221;-72
2022/04/30 16:59:09;;;;;;;;;;;;;;;;;;5047680;28;20067;-72
2022/04/30 17:01:35;;;;;;;;;;;;;;;;;;5034905;28;19929;-75
2022/04/30 17:04:01;;;;;;;;;;;;;;;;;;5042214;28;19984;-74
2022/04/30 17:06:29;;;;;;;;;;;;;;;;;;5034480;28;20392;-74
2022/04/30 17:08:55;;;;;;;;;;;;;;;;;;5038264;28;19968;-73
2022/04/30 17:11:21;;;;;;;;;;;;;;;;;;5039568;28;19928;-74
2022/04/30 17:13:47;;;;;;;;;;;;;;;;;;5044845;28;19929;-73
2022/04/30 17:16:13;;;;;;;;;;;;;;;;;;5036112;28;19955;-75
2022/04/30 17:18:39;;;;;;;;;;;;;;;;;;5042609;28;19928;-75
2022/04/30 17:21:06;;;;;;;;;;;;;;;;;;5046461;28;19935;-74
2022/04/30 17:23:32;;;;;;;;;;;;;;;;;;5043903;28;19929;-74
2022/04/30 17:25:58;;;;;;;;;;;;;;;;;;5033415;28;19940;-74
2022/04/30 17:28:24;;;;;;;;;;;;;;;;;;5043041;28;19928;-73
2022/04/30 17:39:02;;;;;;;;;;;;;;;;;;5040030;28;19975;-75
2022/04/30 17:41:28;;;;;;;;;;;;;;;;;;5031477;28;19935;-74
2022/04/30 17:43:55;;;;;;;;;;;;;;;;;;5037349;28;19925;-75
2022/04/30 17:46:21;;;;;;;;;;;;;;;;;;5043517;28;19932;-75
2022/04/30 17:48:47;;;;;;;;;;;;;;;;;;5041431;28;19929;-74
2022/04/30 17:51:14;;;;;;;;;;;;;;;;;;5044130;28;19928;-73